sensor_id;sensor_type;location;lat;lon;timestamp;P1;durP1;ratioP1;P2;durP2;ratioP2
37677;SDS011;23517;50.390;8.616;2023-07-30T00:02:19;1.55;;;1.15;;
37677;SDS011;23517;50.390;8.616;2023-07-30T00:04:46;1.50;;;1.10;;
37677;SDS011;23517;50.390;8.616;2023-07-30T00:07:14;4.55;;;0.80;;
37677;SDS011;23517;50.390;8.616;2023-07-30T00:09:40;1.50;;;1.02;;
37677;SDS011;23517;50.390;8.616;2023-07-30T00:12:07;1.30;;;1.20;;
37677;SDS011;23517;50.390;8.616;2023-07-30T00:14:35;1.60;;;1.25;;
37677;SDS011;23517;50.390;8.616;2023-07-30T00:17:02;1.20;;;1.10;;
37677;SDS011;23517;50.390;8.616;2023-07-30T00:19:30;1.08;;;0.95;;
37677;SDS011;23517;50.390;8.616;2023-07-30T00:21:56;1.35;;;1.00;;
37677;SDS011;23517;50.390;8.616;2023-07-30T00:24:23;1.48;;;1.25;;
37677;SDS011;23517;50.390;8.616;2023-07-30T00:26:50;3.80;;;1.30;;
37677;SDS011;23517;50.390;8.616;2023-07-30T00:29:16;3.10;;;1.02;;
37677;SDS011;23517;50.390;8.616;2023-07-30T00:31:44;1.00;;;0.90;;
37677;SDS011;23517;50.390;8.616;2023-07-30T00:34:10;1.35;;;0.93;;
37677;SDS011;23517;50.390;8.616;2023-07-30T00:36:37;1.77;;;1.10;;
37677;SDS011;23517;50.390;8.616;2023-07-30T00:39:04;3.08;;;1.00;;
37677;SDS011;23517;50.390;8.616;2023-07-30T00:41:31;1.63;;;1.35;;
37677;SDS011;23517;50.390;8.616;2023-07-30T00:43:57;0.90;;;0.90;;
37677;SDS011;23517;50.390;8.616;2023-07-30T00:46:24;0.93;;;0.82;;
37677;SDS011;23517;50.390;8.616;2023-07-30T00:48:51;1.48;;;1.20;;
37677;SDS011;23517;50.390;8.616;2023-07-30T00:51:18;0.93;;;0.93;;
37677;SDS011;23517;50.390;8.616;2023-07-30T00:53:46;1.33;;;1.20;;
37677;SDS011;23517;50.390;8.616;2023-07-30T00:56:12;2.17;;;1.30;;
37677;SDS011;23517;50.390;8.616;2023-07-30T00:58:40;1.65;;;0.95;;
37677;SDS011;23517;50.390;8.616;2023-07-30T01:01:07;2.20;;;1.10;;
37677;SDS011;23517;50.390;8.616;2023-07-30T01:03:35;1.10;;;1.00;;
37677;SDS011;23517;50.390;8.616;2023-07-30T01:06:02;1.10;;;1.00;;
37677;SDS011;23517;50.390;8.616;2023-07-30T01:08:29;4.25;;;1.10;;
37677;SDS011;23517;50.390;8.616;2023-07-30T01:10:57;2.88;;;1.02;;
37677;SDS011;23517;50.390;8.616;2023-07-30T01:13:24;3.13;;;1.05;;
37677;SDS011;23517;50.390;8.616;2023-07-30T01:15:52;1.83;;;1.02;;
37677;SDS011;23517;50.390;8.616;2023-07-30T01:18:19;0.93;;;0.90;;
37677;SDS011;23517;50.390;8.616;2023-07-30T01:20:46;1.88;;;1.23;;
37677;SDS011;23517;50.390;8.616;2023-07-30T01:23:13;1.27;;;1.00;;
37677;SDS011;23517;50.390;8.616;2023-07-30T01:25:39;1.23;;;1.00;;
37677;SDS011;23517;50.390;8.616;2023-07-30T01:28:08;2.72;;;1.08;;
37677;SDS011;23517;50.390;8.616;2023-07-30T01:30:40;2.15;;;1.02;;
37677;SDS011;23517;50.390;8.616;2023-07-30T01:33:09;1.90;;;1.20;;
37677;SDS011;23517;50.390;8.616;2023-07-30T01:35:37;2.38;;;1.55;;
37677;SDS011;23517;50.390;8.616;2023-07-30T01:38:05;1.27;;;1.00;;
37677;SDS011;23517;50.390;8.616;2023-07-30T01:40:33;1.95;;;0.88;;
37677;SDS011;23517;50.390;8.616;2023-07-30T01:43:00;1.33;;;1.10;;
37677;SDS011;23517;50.390;8.616;2023-07-30T01:45:27;1.25;;;1.00;;
37677;SDS011;23517;50.390;8.616;2023-07-30T01:47:53;1.85;;;1.38;;
37677;SDS011;23517;50.390;8.616;2023-07-30T01:50:20;2.05;;;1.10;;
37677;SDS011;23517;50.390;8.616;2023-07-30T01:52:48;3.83;;;1.25;;
37677;SDS011;23517;50.390;8.616;2023-07-30T01:55:14;1.27;;;1.05;;
37677;SDS011;23517;50.390;8.616;2023-07-30T01:57:41;2.08;;;1.02;;
37677;SDS011;23517;50.390;8.616;2023-07-30T02:00:08;1.42;;;1.00;;
37677;SDS011;23517;50.390;8.616;2023-07-30T02:02:35;1.75;;;1.10;;
37677;SDS011;23517;50.390;8.616;2023-07-30T02:05:02;1.40;;;0.90;;
37677;SDS011;23517;50.390;8.616;2023-07-30T02:07:29;1.40;;;1.00;;
37677;SDS011;23517;50.390;8.616;2023-07-30T02:09:56;1.45;;;1.15;;
37677;SDS011;23517;50.390;8.616;2023-07-30T02:12:23;2.85;;;1.35;;
37677;SDS011;23517;50.390;8.616;2023-07-30T02:14:54;1.58;;;1.10;;
37677;SDS011;23517;50.390;8.616;2023-07-30T02:17:20;1.20;;;1.05;;
37677;SDS011;23517;50.390;8.616;2023-07-30T02:19:47;3.17;;;1.35;;
37677;SDS011;23517;50.390;8.616;2023-07-30T02:22:14;1.30;;;1.20;;
37677;SDS011;23517;50.390;8.616;2023-07-30T02:24:40;2.00;;;1.25;;
37677;SDS011;23517;50.390;8.616;2023-07-30T02:27:07;2.63;;;1.13;;
37677;SDS011;23517;50.390;8.616;2023-07-30T02:29:34;1.95;;;1.20;;
37677;SDS011;23517;50.390;8.616;2023-07-30T02:32:01;2.55;;;1.08;;
37677;SDS011;23517;50.390;8.616;2023-07-30T02:34:27;1.33;;;1.17;;
37677;SDS011;23517;50.390;8.616;2023-07-30T02:36:54;2.83;;;1.38;;
37677;SDS011;23517;50.390;8.616;2023-07-30T02:39:21;3.47;;;1.50;;
37677;SDS011;23517;50.390;8.616;2023-07-30T02:41:47;2.72;;;1.20;;
37677;SDS011;23517;50.390;8.616;2023-07-30T02:44:14;2.03;;;1.20;;
37677;SDS011;23517;50.390;8.616;2023-07-30T02:46:41;1.98;;;1.20;;
37677;SDS011;23517;50.390;8.616;2023-07-30T02:49:08;4.20;;;1.23;;
37677;SDS011;23517;50.390;8.616;2023-07-30T02:51:34;1.73;;;1.17;;
37677;SDS011;23517;50.390;8.616;2023-07-30T02:54:05;3.22;;;1.20;;
37677;SDS011;23517;50.390;8.616;2023-07-30T02:56:33;3.75;;;1.35;;
37677;SDS011;23517;50.390;8.616;2023-07-30T02:59:00;3.42;;;1.35;;
37677;SDS011;23517;50.390;8.616;2023-07-30T03:01:27;3.25;;;1.20;;
37677;SDS011;23517;50.390;8.616;2023-07-30T03:03:54;2.38;;;1.10;;
37677;SDS011;23517;50.390;8.616;2023-07-30T03:06:20;1.58;;;1.00;;
37677;SDS011;23517;50.390;8.616;2023-07-30T03:08:47;3.78;;;0.90;;
37677;SDS011;23517;50.390;8.616;2023-07-30T03:11:14;2.42;;;1.20;;
37677;SDS011;23517;50.390;8.616;2023-07-30T03:13:41;4.82;;;1.30;;
37677;SDS011;23517;50.390;8.616;2023-07-30T03:16:08;2.55;;;1.27;;
37677;SDS011;23517;50.390;8.616;2023-07-30T03:18:34;3.58;;;1.50;;
37677;SDS011;23517;50.390;8.616;2023-07-30T03:21:01;2.15;;;1.13;;
37677;SDS011;23517;50.390;8.616;2023-07-30T03:23:29;2.13;;;1.30;;
37677;SDS011;23517;50.390;8.616;2023-07-30T03:25:56;2.15;;;1.20;;
37677;SDS011;23517;50.390;8.616;2023-07-30T03:28:22;1.55;;;1.40;;
37677;SDS011;23517;50.390;8.616;2023-07-30T03:30:49;3.28;;;1.35;;
37677;SDS011;23517;50.390;8.616;2023-07-30T03:33:16;6.43;;;1.30;;
37677;SDS011;23517;50.390;8.616;2023-07-30T03:35:43;1.38;;;1.20;;
37677;SDS011;23517;50.390;8.616;2023-07-30T03:38:10;2.80;;;1.40;;
37677;SDS011;23517;50.390;8.616;2023-07-30T03:40:36;3.75;;;1.40;;
37677;SDS011;23517;50.390;8.616;2023-07-30T03:43:03;1.45;;;1.35;;
37677;SDS011;23517;50.390;8.616;2023-07-30T03:45:30;3.70;;;1.15;;
37677;SDS011;23517;50.390;8.616;2023-07-30T03:47:56;4.30;;;1.40;;
37677;SDS011;23517;50.390;8.616;2023-07-30T03:50:23;2.17;;;1.40;;
37677;SDS011;23517;50.390;8.616;2023-07-30T03:52:50;3.83;;;1.48;;
37677;SDS011;23517;50.390;8.616;2023-07-30T03:55:16;1.30;;;1.20;;
37677;SDS011;23517;50.390;8.616;2023-07-30T03:57:43;2.15;;;1.15;;
37677;SDS011;23517;50.390;8.616;2023-07-30T04:00:10;2.22;;;1.20;;
37677;SDS011;23517;50.390;8.616;2023-07-30T04:02:37;2.00;;;1.77;;
37677;SDS011;23517;50.390;8.616;2023-07-30T04:05:04;1.88;;;1.15;;
37677;SDS011;23517;50.390;8.616;2023-07-30T04:07:31;3.10;;;1.23;;
37677;SDS011;23517;50.390;8.616;2023-07-30T04:09:57;6.75;;;1.52;;
37677;SDS011;23517;50.390;8.616;2023-07-30T04:12:24;4.78;;;1.17;;
37677;SDS011;23517;50.390;8.616;2023-07-30T04:14:51;2.15;;;1.25;;
37677;SDS011;23517;50.390;8.616;2023-07-30T04:17:18;4.35;;;1.40;;
37677;SDS011;23517;50.390;8.616;2023-07-30T04:19:44;5.20;;;1.35;;
37677;SDS011;23517;50.390;8.616;2023-07-30T04:22:11;2.38;;;1.38;;
37677;SDS011;23517;50.390;8.616;2023-07-30T04:24:37;4.95;;;1.42;;
37677;SDS011;23517;50.390;8.616;2023-07-30T04:27:04;3.47;;;1.40;;
37677;SDS011;23517;50.390;8.616;2023-07-30T04:29:31;2.22;;;1.40;;
37677;SDS011;23517;50.390;8.616;2023-07-30T04:31:58;2.08;;;1.48;;
37677;SDS011;23517;50.390;8.616;2023-07-30T04:34:24;5.18;;;1.33;;
37677;SDS011;23517;50.390;8.616;2023-07-30T04:36:51;4.15;;;1.40;;
37677;SDS011;23517;50.390;8.616;2023-07-30T04:39:18;10.60;;;1.88;;
37677;SDS011;23517;50.390;8.616;2023-07-30T04:41:45;7.60;;;1.23;;
37677;SDS011;23517;50.390;8.616;2023-07-30T04:44:11;1.40;;;1.30;;
37677;SDS011;23517;50.390;8.616;2023-07-30T04:46:38;7.07;;;1.35;;
37677;SDS011;23517;50.390;8.616;2023-07-30T04:49:05;5.97;;;1.27;;
37677;SDS011;23517;50.390;8.616;2023-07-30T04:51:34;3.78;;;1.50;;
37677;SDS011;23517;50.390;8.616;2023-07-30T04:54:01;4.47;;;1.30;;
37677;SDS011;23517;50.390;8.616;2023-07-30T04:56:28;4.75;;;1.77;;
37677;SDS011;23517;50.390;8.616;2023-07-30T04:58:54;3.60;;;1.52;;
37677;SDS011;23517;50.390;8.616;2023-07-30T05:01:21;4.88;;;1.42;;
37677;SDS011;23517;50.390;8.616;2023-07-30T05:03:55;4.15;;;1.80;;
37677;SDS011;23517;50.390;8.616;2023-07-30T05:06:23;3.53;;;1.60;;
37677;SDS011;23517;50.390;8.616;2023-07-30T05:08:49;1.70;;;1.40;;
37677;SDS011;23517;50.390;8.616;2023-07-30T05:11:16;2.28;;;1.42;;
37677;SDS011;23517;50.390;8.616;2023-07-30T05:13:43;2.75;;;1.20;;
37677;SDS011;23517;50.390;8.616;2023-07-30T05:16:10;3.05;;;1.35;;
37677;SDS011;23517;50.390;8.616;2023-07-30T05:18:36;3.53;;;1.45;;
37677;SDS011;23517;50.390;8.616;2023-07-30T05:21:03;3.42;;;1.40;;
37677;SDS011;23517;50.390;8.616;2023-07-30T05:23:30;3.53;;;1.40;;
37677;SDS011;23517;50.390;8.616;2023-07-30T05:25:56;3.22;;;1.52;;
37677;SDS011;23517;50.390;8.616;2023-07-30T05:28:23;3.65;;;1.40;;
37677;SDS011;23517;50.390;8.616;2023-07-30T05:30:50;8.18;;;1.60;;
37677;SDS011;23517;50.390;8.616;2023-07-30T05:33:16;3.00;;;1.50;;
37677;SDS011;23517;50.390;8.616;2023-07-30T05:35:43;6.25;;;1.30;;
37677;SDS011;23517;50.390;8.616;2023-07-30T05:38:10;2.83;;;1.10;;
37677;SDS011;23517;50.390;8.616;2023-07-30T05:40:37;2.70;;;1.20;;
37677;SDS011;23517;50.390;8.616;2023-07-30T05:43:05;1.20;;;1.10;;
37677;SDS011;23517;50.390;8.616;2023-07-30T05:45:33;1.02;;;0.90;;
37677;SDS011;23517;50.390;8.616;2023-07-30T05:48:00;2.05;;;1.30;;
37677;SDS011;23517;50.390;8.616;2023-07-30T05:50:27;2.35;;;1.45;;
37677;SDS011;23517;50.390;8.616;2023-07-30T05:52:54;2.72;;;1.20;;
37677;SDS011;23517;50.390;8.616;2023-07-30T05:55:20;1.95;;;1.20;;
37677;SDS011;23517;50.390;8.616;2023-07-30T05:57:47;4.35;;;1.10;;
37677;SDS011;23517;50.390;8.616;2023-07-30T06:00:14;4.30;;;1.40;;
37677;SDS011;23517;50.390;8.616;2023-07-30T06:02:43;2.08;;;0.98;;
37677;SDS011;23517;50.390;8.616;2023-07-30T06:05:10;3.47;;;1.08;;
37677;SDS011;23517;50.390;8.616;2023-07-30T06:07:37;5.88;;;1.13;;
37677;SDS011;23517;50.390;8.616;2023-07-30T06:10:03;2.65;;;0.95;;
37677;SDS011;23517;50.390;8.616;2023-07-30T06:12:31;2.60;;;0.98;;
37677;SDS011;23517;50.390;8.616;2023-07-30T06:14:57;2.63;;;0.88;;
37677;SDS011;23517;50.390;8.616;2023-07-30T06:17:24;4.40;;;1.10;;
37677;SDS011;23517;50.390;8.616;2023-07-30T06:19:51;2.20;;;0.80;;
37677;SDS011;23517;50.390;8.616;2023-07-30T06:22:17;2.15;;;0.90;;
37677;SDS011;23517;50.390;8.616;2023-07-30T06:24:44;0.75;;;0.63;;
37677;SDS011;23517;50.390;8.616;2023-07-30T06:27:11;2.08;;;0.85;;
37677;SDS011;23517;50.390;8.616;2023-07-30T06:29:38;1.83;;;0.80;;
37677;SDS011;23517;50.390;8.616;2023-07-30T06:32:05;2.40;;;0.90;;
37677;SDS011;23517;50.390;8.616;2023-07-30T06:34:32;4.53;;;0.77;;
37677;SDS011;23517;50.390;8.616;2023-07-30T06:36:59;1.33;;;0.70;;
37677;SDS011;23517;50.390;8.616;2023-07-30T06:39:25;2.15;;;0.80;;
37677;SDS011;23517;50.390;8.616;2023-07-30T06:41:52;5.50;;;0.80;;
37677;SDS011;23517;50.390;8.616;2023-07-30T06:44:19;7.50;;;1.00;;
37677;SDS011;23517;50.390;8.616;2023-07-30T06:46:46;1.02;;;0.73;;
37677;SDS011;23517;50.390;8.616;2023-07-30T06:49:12;1.52;;;0.93;;
37677;SDS011;23517;50.390;8.616;2023-07-30T06:51:39;1.90;;;0.80;;
37677;SDS011;23517;50.390;8.616;2023-07-30T06:54:06;1.85;;;0.90;;
37677;SDS011;23517;50.390;8.616;2023-07-30T06:56:33;2.85;;;0.90;;
37677;SDS011;23517;50.390;8.616;2023-07-30T06:58:59;1.70;;;0.93;;
37677;SDS011;23517;50.390;8.616;2023-07-30T07:01:28;4.40;;;1.40;;
37677;SDS011;23517;50.390;8.616;2023-07-30T07:03:54;3.75;;;1.30;;
37677;SDS011;23517;50.390;8.616;2023-07-30T07:06:21;1.90;;;0.80;;
37677;SDS011;23517;50.390;8.616;2023-07-30T07:08:48;3.45;;;1.10;;
37677;SDS011;23517;50.390;8.616;2023-07-30T07:11:14;4.00;;;1.15;;
37677;SDS011;23517;50.390;8.616;2023-07-30T07:13:41;1.60;;;0.77;;
37677;SDS011;23517;50.390;8.616;2023-07-30T07:16:08;3.78;;;1.25;;
37677;SDS011;23517;50.390;8.616;2023-07-30T07:18:34;3.00;;;0.90;;
37677;SDS011;23517;50.390;8.616;2023-07-30T07:21:02;6.85;;;0.90;;
37677;SDS011;23517;50.390;8.616;2023-07-30T07:23:28;1.42;;;0.77;;
37677;SDS011;23517;50.390;8.616;2023-07-30T07:25:55;2.85;;;0.80;;
37677;SDS011;23517;50.390;8.616;2023-07-30T07:28:22;2.75;;;0.80;;
37677;SDS011;23517;50.390;8.616;2023-07-30T07:30:49;5.22;;;1.10;;
37677;SDS011;23517;50.390;8.616;2023-07-30T07:33:15;1.98;;;0.90;;
37677;SDS011;23517;50.390;8.616;2023-07-30T07:35:43;7.78;;;1.15;;
37677;SDS011;23517;50.390;8.616;2023-07-30T07:38:09;2.50;;;1.05;;
37677;SDS011;23517;50.390;8.616;2023-07-30T07:40:37;3.55;;;1.00;;
37677;SDS011;23517;50.390;8.616;2023-07-30T07:43:07;2.40;;;1.00;;
37677;SDS011;23517;50.390;8.616;2023-07-30T07:45:35;3.80;;;0.93;;
37677;SDS011;23517;50.390;8.616;2023-07-30T07:48:02;3.33;;;0.90;;
37677;SDS011;23517;50.390;8.616;2023-07-30T07:50:29;4.15;;;1.10;;
37677;SDS011;23517;50.390;8.616;2023-07-30T07:52:56;1.50;;;0.70;;
37677;SDS011;23517;50.390;8.616;2023-07-30T07:55:23;1.63;;;0.90;;
37677;SDS011;23517;50.390;8.616;2023-07-30T07:57:49;3.70;;;1.00;;
37677;SDS011;23517;50.390;8.616;2023-07-30T08:00:17;1.25;;;0.75;;
37677;SDS011;23517;50.390;8.616;2023-07-30T08:02:44;2.63;;;1.00;;
37677;SDS011;23517;50.390;8.616;2023-07-30T08:05:14;3.72;;;0.82;;
37677;SDS011;23517;50.390;8.616;2023-07-30T08:07:43;3.67;;;0.90;;
37677;SDS011;23517;50.390;8.616;2023-07-30T08:10:12;2.75;;;0.85;;
37677;SDS011;23517;50.390;8.616;2023-07-30T08:12:39;3.25;;;1.00;;
37677;SDS011;23517;50.390;8.616;2023-07-30T08:15:05;1.70;;;0.73;;
37677;SDS011;23517;50.390;8.616;2023-07-30T08:17:33;1.60;;;0.85;;
37677;SDS011;23517;50.390;8.616;2023-07-30T08:19:59;1.88;;;0.93;;
37677;SDS011;23517;50.390;8.616;2023-07-30T08:22:26;2.05;;;0.88;;
37677;SDS011;23517;50.390;8.616;2023-07-30T08:24:53;2.17;;;1.25;;
37677;SDS011;23517;50.390;8.616;2023-07-30T08:27:19;2.15;;;0.75;;
37677;SDS011;23517;50.390;8.616;2023-07-30T08:29:46;3.65;;;0.90;;
37677;SDS011;23517;50.390;8.616;2023-07-30T08:32:12;2.17;;;0.80;;
37677;SDS011;23517;50.390;8.616;2023-07-30T08:34:39;1.77;;;0.85;;
37677;SDS011;23517;50.390;8.616;2023-07-30T08:37:06;0.80;;;0.70;;
37677;SDS011;23517;50.390;8.616;2023-07-30T08:39:33;1.73;;;1.00;;
37677;SDS011;23517;50.390;8.616;2023-07-30T08:42:00;3.13;;;0.90;;
37677;SDS011;23517;50.390;8.616;2023-07-30T08:44:27;1.42;;;0.70;;
37677;SDS011;23517;50.390;8.616;2023-07-30T08:46:53;3.65;;;1.00;;
37677;SDS011;23517;50.390;8.616;2023-07-30T08:49:21;0.70;;;0.70;;
37677;SDS011;23517;50.390;8.616;2023-07-30T08:51:48;2.20;;;0.90;;
37677;SDS011;23517;50.390;8.616;2023-07-30T08:54:19;1.27;;;0.95;;
37677;SDS011;23517;50.390;8.616;2023-07-30T08:56:47;1.33;;;0.80;;
37677;SDS011;23517;50.390;8.616;2023-07-30T08:59:14;3.78;;;1.25;;
37677;SDS011;23517;50.390;8.616;2023-07-30T09:01:42;0.80;;;0.73;;
37677;SDS011;23517;50.390;8.616;2023-07-30T09:04:10;3.85;;;0.88;;
37677;SDS011;23517;50.390;8.616;2023-07-30T09:06:37;1.83;;;0.80;;
37677;SDS011;23517;50.390;8.616;2023-07-30T09:09:04;2.92;;;0.93;;
37677;SDS011;23517;50.390;8.616;2023-07-30T09:14:05;2.38;;;0.95;;
37677;SDS011;23517;50.390;8.616;2023-07-30T09:16:33;2.40;;;0.80;;
37677;SDS011;23517;50.390;8.616;2023-07-30T09:19:00;3.05;;;1.00;;
37677;SDS011;23517;50.390;8.616;2023-07-30T09:21:33;1.33;;;1.00;;
37677;SDS011;23517;50.390;8.616;2023-07-30T09:24:02;4.90;;;1.10;;
37677;SDS011;23517;50.390;8.616;2023-07-30T09:26:42;2.25;;;0.90;;
37677;SDS011;23517;50.390;8.616;2023-07-30T09:29:11;3.25;;;1.13;;
37677;SDS011;23517;50.390;8.616;2023-07-30T09:31:48;4.78;;;1.00;;
37677;SDS011;23517;50.390;8.616;2023-07-30T09:34:18;1.55;;;1.02;;
37677;SDS011;23517;50.390;8.616;2023-07-30T09:36:44;2.05;;;0.88;;
37677;SDS011;23517;50.390;8.616;2023-07-30T09:39:22;1.33;;;0.90;;
37677;SDS011;23517;50.390;8.616;2023-07-30T09:41:51;3.60;;;1.20;;
37677;SDS011;23517;50.390;8.616;2023-07-30T09:44:22;3.45;;;1.15;;
37677;SDS011;23517;50.390;8.616;2023-07-30T09:46:49;11.45;;;1.70;;
37677;SDS011;23517;50.390;8.616;2023-07-30T09:49:17;5.00;;;1.25;;
37677;SDS011;23517;50.390;8.616;2023-07-30T09:51:44;1.73;;;0.45;;
37677;SDS011;23517;50.390;8.616;2023-07-30T09:54:12;1.60;;;0.60;;
37677;SDS011;23517;50.390;8.616;2023-07-30T09:56:40;1.75;;;0.50;;
37677;SDS011;23517;50.390;8.616;2023-07-30T09:59:08;2.25;;;0.40;;
37677;SDS011;23517;50.390;8.616;2023-07-30T10:01:37;1.75;;;0.40;;
37677;SDS011;23517;50.390;8.616;2023-07-30T10:04:10;0.77;;;0.32;;
37677;SDS011;23517;50.390;8.616;2023-07-30T10:06:42;0.65;;;0.40;;
37677;SDS011;23517;50.390;8.616;2023-07-30T10:09:17;0.40;;;0.40;;
37677;SDS011;23517;50.390;8.616;2023-07-30T10:11:49;0.68;;;0.50;;
37677;SDS011;23517;50.390;8.616;2023-07-30T10:14:21;0.43;;;0.25;;
37677;SDS011;23517;50.390;8.616;2023-07-30T10:16:50;1.00;;;0.50;;
37677;SDS011;23517;50.390;8.616;2023-07-30T10:19:22;1.08;;;0.25;;
37677;SDS011;23517;50.390;8.616;2023-07-30T10:22:19;0.68;;;0.40;;
37677;SDS011;23517;50.390;8.616;2023-07-30T10:24:41;1.13;;;0.68;;
37677;SDS011;23517;50.390;8.616;2023-07-30T10:27:25;0.65;;;0.35;;
37677;SDS011;23517;50.390;8.616;2023-07-30T10:32:40;2.50;;;0.60;;
37677;SDS011;23517;50.390;8.616;2023-07-30T10:38:27;2.85;;;0.70;;
37677;SDS011;23517;50.390;8.616;2023-07-30T10:43:41;1.67;;;0.90;;
37677;SDS011;23517;50.390;8.616;2023-07-30T10:46:17;1.70;;;0.80;;
37677;SDS011;23517;50.390;8.616;2023-07-30T10:48:46;4.38;;;0.73;;
37677;SDS011;23517;50.390;8.616;2023-07-30T10:51:15;2.25;;;0.80;;
37677;SDS011;23517;50.390;8.616;2023-07-30T10:53:44;3.13;;;0.70;;
37677;SDS011;23517;50.390;8.616;2023-07-30T10:56:15;1.92;;;0.65;;
37677;SDS011;23517;50.390;8.616;2023-07-30T10:58:43;2.05;;;0.70;;
37677;SDS011;23517;50.390;8.616;2023-07-30T11:01:17;3.72;;;0.60;;
37677;SDS011;23517;50.390;8.616;2023-07-30T11:03:47;3.80;;;0.90;;
37677;SDS011;23517;50.390;8.616;2023-07-30T11:06:23;3.03;;;1.08;;
37677;SDS011;23517;50.390;8.616;2023-07-30T11:08:51;2.58;;;0.80;;
37677;SDS011;23517;50.390;8.616;2023-07-30T11:11:18;2.95;;;1.02;;
37677;SDS011;23517;50.390;8.616;2023-07-30T11:13:46;3.40;;;1.05;;
37677;SDS011;23517;50.390;8.616;2023-07-30T11:16:14;2.38;;;0.80;;
37677;SDS011;23517;50.390;8.616;2023-07-30T11:18:42;3.65;;;1.08;;
37677;SDS011;23517;50.390;8.616;2023-07-30T11:21:11;2.80;;;0.82;;
37677;SDS011;23517;50.390;8.616;2023-07-30T11:23:40;3.83;;;0.85;;
37677;SDS011;23517;50.390;8.616;2023-07-30T11:26:12;1.70;;;0.80;;
37677;SDS011;23517;50.390;8.616;2023-07-30T11:28:45;5.90;;;0.98;;
37677;SDS011;23517;50.390;8.616;2023-07-30T11:31:14;3.97;;;1.23;;
37677;SDS011;23517;50.390;8.616;2023-07-30T11:33:46;2.92;;;1.10;;
37677;SDS011;23517;50.390;8.616;2023-07-30T11:36:15;3.15;;;0.70;;
37677;SDS011;23517;50.390;8.616;2023-07-30T11:38:45;4.78;;;1.00;;
37677;SDS011;23517;50.390;8.616;2023-07-30T11:41:12;2.35;;;1.35;;
37677;SDS011;23517;50.390;8.616;2023-07-30T11:43:43;4.88;;;0.80;;
37677;SDS011;23517;50.390;8.616;2023-07-30T11:46:12;4.55;;;0.98;;
37677;SDS011;23517;50.390;8.616;2023-07-30T11:48:42;3.45;;;1.00;;
37677;SDS011;23517;50.390;8.616;2023-07-30T11:51:21;4.32;;;1.00;;
37677;SDS011;23517;50.390;8.616;2023-07-30T11:56:24;6.38;;;1.02;;
37677;SDS011;23517;50.390;8.616;2023-07-30T11:58:54;4.78;;;1.10;;
37677;SDS011;23517;50.390;8.616;2023-07-30T12:01:28;3.30;;;1.00;;
37677;SDS011;23517;50.390;8.616;2023-07-30T12:03:57;4.60;;;1.15;;
37677;SDS011;23517;50.390;8.616;2023-07-30T12:06:39;6.82;;;1.52;;
37677;SDS011;23517;50.390;8.616;2023-07-30T12:09:14;8.88;;;1.13;;
37677;SDS011;23517;50.390;8.616;2023-07-30T12:11:58;4.18;;;1.20;;
37677;SDS011;23517;50.390;8.616;2023-07-30T12:14:27;2.33;;;0.93;;
37677;SDS011;23517;50.390;8.616;2023-07-30T12:16:57;3.33;;;1.05;;
37677;SDS011;23517;50.390;8.616;2023-07-30T12:19:27;4.43;;;1.40;;
37677;SDS011;23517;50.390;8.616;2023-07-30T12:21:54;4.35;;;1.35;;
37677;SDS011;23517;50.390;8.616;2023-07-30T12:24:20;3.97;;;0.80;;
37677;SDS011;23517;50.390;8.616;2023-07-30T12:26:48;4.85;;;1.08;;
37677;SDS011;23517;50.390;8.616;2023-07-30T12:29:16;10.07;;;1.67;;
37677;SDS011;23517;50.390;8.616;2023-07-30T12:31:43;4.78;;;1.33;;
37677;SDS011;23517;50.390;8.616;2023-07-30T12:34:12;4.15;;;1.45;;
37677;SDS011;23517;50.390;8.616;2023-07-30T12:36:39;4.90;;;1.38;;
37677;SDS011;23517;50.390;8.616;2023-07-30T12:39:05;6.97;;;1.45;;
37677;SDS011;23517;50.390;8.616;2023-07-30T12:41:33;7.05;;;1.50;;
37677;SDS011;23517;50.390;8.616;2023-07-30T12:44:00;4.10;;;1.17;;
37677;SDS011;23517;50.390;8.616;2023-07-30T12:46:26;6.53;;;1.13;;
37677;SDS011;23517;50.390;8.616;2023-07-30T12:48:56;7.40;;;1.23;;
37677;SDS011;23517;50.390;8.616;2023-07-30T12:51:23;4.88;;;1.55;;
37677;SDS011;23517;50.390;8.616;2023-07-30T12:53:49;5.32;;;1.30;;
37677;SDS011;23517;50.390;8.616;2023-07-30T12:56:16;9.63;;;1.50;;
37677;SDS011;23517;50.390;8.616;2023-07-30T12:58:43;8.15;;;1.63;;
37677;SDS011;23517;50.390;8.616;2023-07-30T13:01:09;6.88;;;1.83;;
37677;SDS011;23517;50.390;8.616;2023-07-30T13:03:36;4.53;;;1.20;;
37677;SDS011;23517;50.390;8.616;2023-07-30T13:06:03;4.95;;;1.20;;
37677;SDS011;23517;50.390;8.616;2023-07-30T13:08:30;4.75;;;1.30;;
37677;SDS011;23517;50.390;8.616;2023-07-30T13:10:56;5.25;;;1.40;;
37677;SDS011;23517;50.390;8.616;2023-07-30T13:13:29;5.82;;;1.10;;
37677;SDS011;23517;50.390;8.616;2023-07-30T13:15:56;4.78;;;1.40;;
37677;SDS011;23517;50.390;8.616;2023-07-30T13:18:24;8.70;;;1.42;;
37677;SDS011;23517;50.390;8.616;2023-07-30T13:20:50;5.18;;;1.20;;
37677;SDS011;23517;50.390;8.616;2023-07-30T13:23:17;6.00;;;1.05;;
37677;SDS011;23517;50.390;8.616;2023-07-30T13:25:44;4.93;;;1.38;;
37677;SDS011;23517;50.390;8.616;2023-07-30T13:28:11;4.80;;;1.13;;
37677;SDS011;23517;50.390;8.616;2023-07-30T13:30:37;6.40;;;1.05;;
37677;SDS011;23517;50.390;8.616;2023-07-30T13:33:04;6.03;;;1.38;;
37677;SDS011;23517;50.390;8.616;2023-07-30T13:35:31;7.45;;;1.23;;
37677;SDS011;23517;50.390;8.616;2023-07-30T13:37:57;5.50;;;1.52;;
37677;SDS011;23517;50.390;8.616;2023-07-30T13:40:24;6.63;;;1.20;;
37677;SDS011;23517;50.390;8.616;2023-07-30T13:42:51;6.63;;;1.55;;
37677;SDS011;23517;50.390;8.616;2023-07-30T13:45:17;5.00;;;1.25;;
37677;SDS011;23517;50.390;8.616;2023-07-30T13:47:44;5.63;;;1.35;;
37677;SDS011;23517;50.390;8.616;2023-07-30T13:50:11;6.50;;;1.38;;
37677;SDS011;23517;50.390;8.616;2023-07-30T13:52:39;3.22;;;0.88;;
37677;SDS011;23517;50.390;8.616;2023-07-30T13:55:05;4.57;;;1.13;;
37677;SDS011;23517;50.390;8.616;2023-07-30T13:57:33;3.88;;;1.08;;
37677;SDS011;23517;50.390;8.616;2023-07-30T14:00:02;12.85;;;1.58;;
37677;SDS011;23517;50.390;8.616;2023-07-30T14:02:29;5.30;;;1.25;;
37677;SDS011;23517;50.390;8.616;2023-07-30T14:04:56;5.35;;;1.10;;
37677;SDS011;23517;50.390;8.616;2023-07-30T14:07:22;3.60;;;1.00;;
37677;SDS011;23517;50.390;8.616;2023-07-30T14:09:49;2.58;;;1.02;;
37677;SDS011;23517;50.390;8.616;2023-07-30T14:12:16;8.15;;;1.77;;
37677;SDS011;23517;50.390;8.616;2023-07-30T14:14:43;7.20;;;1.45;;
37677;SDS011;23517;50.390;8.616;2023-07-30T14:17:09;6.22;;;1.00;;
37677;SDS011;23517;50.390;8.616;2023-07-30T14:19:36;8.48;;;1.20;;
37677;SDS011;23517;50.390;8.616;2023-07-30T14:22:03;5.68;;;1.48;;
37677;SDS011;23517;50.390;8.616;2023-07-30T14:24:30;4.93;;;1.17;;
37677;SDS011;23517;50.390;8.616;2023-07-30T14:26:57;4.47;;;1.38;;
37677;SDS011;23517;50.390;8.616;2023-07-30T14:29:25;5.80;;;1.17;;
37677;SDS011;23517;50.390;8.616;2023-07-30T14:31:52;7.35;;;1.30;;
37677;SDS011;23517;50.390;8.616;2023-07-30T14:34:19;3.72;;;0.95;;
37677;SDS011;23517;50.390;8.616;2023-07-30T14:36:45;3.92;;;1.38;;
37677;SDS011;23517;50.390;8.616;2023-07-30T14:39:13;4.50;;;1.23;;
37677;SDS011;23517;50.390;8.616;2023-07-30T14:41:39;3.55;;;1.08;;
37677;SDS011;23517;50.390;8.616;2023-07-30T14:44:06;5.97;;;1.15;;
37677;SDS011;23517;50.390;8.616;2023-07-30T14:46:33;4.43;;;1.15;;
37677;SDS011;23517;50.390;8.616;2023-07-30T14:49:00;6.30;;;1.33;;
37677;SDS011;23517;50.390;8.616;2023-07-30T14:51:28;5.15;;;1.38;;
37677;SDS011;23517;50.390;8.616;2023-07-30T14:53:54;6.47;;;1.50;;
37677;SDS011;23517;50.390;8.616;2023-07-30T14:56:21;2.38;;;0.95;;
37677;SDS011;23517;50.390;8.616;2023-07-30T14:58:48;8.93;;;1.55;;
37677;SDS011;23517;50.390;8.616;2023-07-30T15:01:14;6.00;;;1.30;;
37677;SDS011;23517;50.390;8.616;2023-07-30T15:03:41;5.68;;;1.10;;
37677;SDS011;23517;50.390;8.616;2023-07-30T15:06:08;2.63;;;1.10;;